Time;durP1;ratioP1;P1;durP2;ratioP2;P2;SDS_P1;SDS_P2;PMS_P1;PMS_P2;Temp;Humidity;BMP_temperature;BMP_pressure;BME280_temperature;BME280_humidity;BME280_pressure;Samples;Min_cycle;Max_cycle;Signal;HPM_P1;HPM_P2
2023/04/20 00:02:21;;;;;;;12.25;3.40;;;;;;;;;;5054591;28;20076;-70
2023/04/20 00:04:47;;;;;;;11.07;3.67;;;;;;;;;;5053778;28;20559;-70
2023/04/20 00:07:15;;;;;;;7.25;3.72;;;;;;;;;;5051699;28;20044;-70
2023/04/20 00:09:41;;;;;;;7.15;3.35;;;;;;;;;;5033487;28;20044;-71
2023/04/20 00:12:07;;;;;;;8.10;3.03;;;;;;;;;;5032195;28;20578;-70
2023/04/20 00:14:34;;;;;;;11.30;3.33;;;;;;;;;;5052954;28;20048;-70
2023/04/20 00:17:00;;;;;;;7.07;2.60;;;;;;;;;;5031972;28;20059;-70
2023/04/20 00:19:27;;;;;;;7.38;2.53;;;;;;;;;;5051705;28;20233;-70
2023/04/20 00:21:53;;;;;;;10.88;3.50;;;;;;;;;;5052318;28;20045;-70
2023/04/20 00:24:20;;;;;;;10.63;2.95;;;;;;;;;;5057245;28;20063;-70
2023/04/20 00:26:47;;;;;;;9.88;2.83;;;;;;;;;;5054707;28;20110;-70
2023/04/20 00:29:13;;;;;;;7.15;3.30;;;;;;;;;;5059245;28;20135;-70
2023/04/20 00:31:39;;;;;;;7.32;2.55;;;;;;;;;;5057679;28;20045;-71
2023/04/20 00:34:05;;;;;;;10.20;2.70;;;;;;;;;;5035345;28;20131;-70
2023/04/20 00:36:31;;;;;;;8.05;2.75;;;;;;;;;;5055193;28;20044;-70
2023/04/20 00:38:58;;;;;;;13.50;3.28;;;;;;;;;;5050490;28;20048;-70
2023/04/20 00:41:24;;;;;;;6.78;2.53;;;;;;;;;;5029676;28;20178;-70
2023/04/20 00:43:51;;;;;;;12.65;3.20;;;;;;;;;;5050371;28;20119;-70
2023/04/20 00:46:18;;;;;;;9.10;2.58;;;;;;;;;;5038987;28;20051;-70
2023/04/20 00:48:44;;;;;;;8.10;2.70;;;;;;;;;;5057691;28;20036;-70
2023/04/20 00:51:10;;;;;;;10.00;2.47;;;;;;;;;;5058593;28;20049;-70
2023/04/20 00:53:37;;;;;;;6.93;2.55;;;;;;;;;;5060399;28;20040;-70
2023/04/20 00:56:03;;;;;;;5.13;1.95;;;;;;;;;;5032307;28;20048;-70
2023/04/20 00:58:29;;;;;;;8.25;2.28;;;;;;;;;;5055775;28;20114;-70
2023/04/20 01:00:55;;;;;;;8.65;2.00;;;;;;;;;;5056266;28;20561;-70
2023/04/20 01:03:22;;;;;;;7.18;2.65;;;;;;;;;;5031418;28;20044;-70
2023/04/20 01:05:48;;;;;;;7.40;2.10;;;;;;;;;;5042711;28;20107;-70
2023/04/20 01:08:14;;;;;;;5.30;1.85;;;;;;;;;;5046077;28;20108;-70
2023/04/20 01:10:40;;;;;;;6.53;2.70;;;;;;;;;;5041209;28;21582;-70
2023/04/20 01:13:06;;;;;;;9.45;2.20;;;;;;;;;;5037186;28;20135;-70
2023/04/20 01:15:34;;;;;;;8.63;1.95;;;;;;;;;;5035523;28;20048;-70
2023/04/20 01:18:01;;;;;;;6.93;1.90;;;;;;;;;;5045539;28;20076;-70
2023/04/20 01:20:27;;;;;;;5.90;2.22;;;;;;;;;;5040709;28;20048;-70
2023/04/20 01:22:54;;;;;;;8.82;2.40;;;;;;;;;;5035159;28;20506;-70
2023/04/20 01:25:20;;;;;;;11.52;2.10;;;;;;;;;;5054221;28;20055;-70
2023/04/20 01:27:47;;;;;;;9.38;1.95;;;;;;;;;;5056416;28;20040;-70
2023/04/20 01:30:13;;;;;;;8.05;1.80;;;;;;;;;;5053376;28;20444;-70
2023/04/20 01:32:40;;;;;;;6.72;1.88;;;;;;;;;;5037377;28;20527;-70
2023/04/20 01:35:06;;;;;;;8.43;2.72;;;;;;;;;;5033760;28;20056;-70
2023/04/20 01:37:32;;;;;;;5.93;1.90;;;;;;;;;;5038859;28;20052;-70
2023/04/20 01:39:59;;;;;;;9.07;2.22;;;;;;;;;;5036347;28;20044;-70
2023/04/20 01:42:25;;;;;;;7.00;1.92;;;;;;;;;;5057422;28;20045;-70
2023/04/20 01:44:51;;;;;;;9.45;1.90;;;;;;;;;;5052854;28;20098;-70
2023/04/20 01:47:17;;;;;;;7.90;2.25;;;;;;;;;;5033868;28;20753;-70
2023/04/20 01:49:44;;;;;;;5.45;2.03;;;;;;;;;;5050630;28;20202;-70
2023/04/20 01:52:10;;;;;;;8.63;1.80;;;;;;;;;;5034789;28;20149;-70
2023/04/20 01:54:36;;;;;;;5.97;1.63;;;;;;;;;;5049376;28;20131;-70
2023/04/20 01:57:02;;;;;;;5.20;2.22;;;;;;;;;;5057807;28;20052;-70
2023/04/20 01:59:29;;;;;;;11.15;2.22;;;;;;;;;;5051222;28;20045;-70
2023/04/20 02:01:55;;;;;;;7.38;1.95;;;;;;;;;;5030807;28;20161;-70
2023/04/20 02:04:21;;;;;;;11.68;3.17;;;;;;;;;;5050805;28;20159;-70
2023/04/20 02:06:47;;;;;;;10.73;2.10;;;;;;;;;;5046277;28;20451;-70
2023/04/20 02:09:14;;;;;;;9.57;2.35;;;;;;;;;;5052313;28;20045;-70
2023/04/20 02:11:40;;;;;;;7.78;2.10;;;;;;;;;;5054133;28;20124;-67
2023/04/20 02:14:06;;;;;;;8.82;2.17;;;;;;;;;;5050169;28;20044;-67
2023/04/20 02:16:34;;;;;;;6.20;1.95;;;;;;;;;;5052436;28;20036;-70
2023/04/20 02:19:00;;;;;;;6.78;1.95;;;;;;;;;;5052858;28;20227;-70
2023/04/20 02:21:26;;;;;;;7.95;2.00;;;;;;;;;;5052136;28;20515;-70
2023/04/20 02:23:53;;;;;;;8.68;2.45;;;;;;;;;;5057534;28;20044;-70
2023/04/20 02:26:19;;;;;;;8.00;2.30;;;;;;;;;;5051300;28;20135;-70
2023/04/20 02:28:45;;;;;;;10.38;2.03;;;;;;;;;;5054815;28;20094;-70
2023/04/20 02:31:11;;;;;;;11.10;2.00;;;;;;;;;;5055756;28;20136;-70
2023/04/20 02:33:37;;;;;;;7.10;2.45;;;;;;;;;;5055175;28;20041;-70
2023/04/20 02:36:04;;;;;;;7.95;1.90;;;;;;;;;;5054141;28;20055;-70
2023/04/20 02:38:30;;;;;;;8.60;2.28;;;;;;;;;;5056090;28;20040;-70
2023/04/20 02:40:56;;;;;;;8.35;3.38;;;;;;;;;;5032705;28;20349;-70
2023/04/20 02:43:22;;;;;;;8.88;2.40;;;;;;;;;;5057475;28;20444;-70
2023/04/20 02:45:49;;;;;;;8.85;2.40;;;;;;;;;;5033191;28;20044;-70
2023/04/20 02:48:15;;;;;;;14.38;2.08;;;;;;;;;;5053672;28;20439;-70
2023/04/20 02:50:42;;;;;;;9.13;2.33;;;;;;;;;;5029474;28;20436;-70
2023/04/20 02:53:08;;;;;;;7.95;2.40;;;;;;;;;;5055613;28;20048;-70
2023/04/20 02:55:34;;;;;;;8.20;1.95;;;;;;;;;;5053235;28;20105;-70
2023/04/20 02:58:00;;;;;;;11.82;1.95;;;;;;;;;;5053790;28;20139;-70
2023/04/20 03:00:26;;;;;;;8.43;2.47;;;;;;;;;;5057361;28;20756;-70
2023/04/20 03:02:53;;;;;;;13.65;2.83;;;;;;;;;;5033154;28;20124;-70
2023/04/20 03:05:19;;;;;;;7.90;2.67;;;;;;;;;;5053837;28;20049;-70
2023/04/20 03:07:45;;;;;;;10.45;2.50;;;;;;;;;;5055279;28;20083;-70
2023/04/20 03:10:11;;;;;;;15.80;3.40;;;;;;;;;;5051182;28;20139;-70
2023/04/20 03:12:37;;;;;;;11.27;3.13;;;;;;;;;;5051967;28;20036;-70
2023/04/20 03:15:06;;;;;;;12.27;3.05;;;;;;;;;;5036197;28;20055;-70
2023/04/20 03:17:32;;;;;;;14.30;3.20;;;;;;;;;;5051286;28;20136;-70
2023/04/20 03:19:58;;;;;;;10.68;2.60;;;;;;;;;;5017598;28;20045;-70
2023/04/20 03:22:24;;;;;;;15.23;3.33;;;;;;;;;;5054042;28;20111;-70
2023/04/20 03:24:51;;;;;;;13.13;2.72;;;;;;;;;;5051583;28;20488;-70
2023/04/20 03:27:17;;;;;;;11.00;3.10;;;;;;;;;;5052823;28;20041;-70
2023/04/20 03:29:43;;;;;;;9.75;2.83;;;;;;;;;;5032600;28;20094;-70
2023/04/20 03:32:09;;;;;;;12.07;3.10;;;;;;;;;;5051762;28;20044;-70
2023/04/20 03:34:35;;;;;;;13.27;3.30;;;;;;;;;;5055887;28;20048;-70
2023/04/20 03:37:01;;;;;;;12.65;3.13;;;;;;;;;;5035544;28;20048;-70
2023/04/20 03:39:27;;;;;;;11.05;2.97;;;;;;;;;;5033093;28;20091;-70
2023/04/20 03:41:54;;;;;;;8.48;3.28;;;;;;;;;;5034316;28;20115;-70
2023/04/20 03:44:20;;;;;;;10.95;2.63;;;;;;;;;;5052079;28;20159;-70
2023/04/20 03:46:46;;;;;;;18.58;3.95;;;;;;;;;;5053375;28;20075;-70
2023/04/20 03:49:12;;;;;;;9.80;3.00;;;;;;;;;;5049867;28;20056;-70
2023/04/20 03:51:38;;;;;;;12.95;3.13;;;;;;;;;;5050137;28;20070;-70
2023/04/20 03:54:05;;;;;;;13.30;3.75;;;;;;;;;;5051400;28;21545;-70
2023/04/20 03:56:31;;;;;;;15.35;4.18;;;;;;;;;;5050966;28;20033;-70
2023/04/20 03:58:57;;;;;;;11.75;3.85;;;;;;;;;;5050336;28;20101;-70
2023/04/20 04:01:23;;;;;;;9.55;2.88;;;;;;;;;;5049835;28;20063;-70
2023/04/20 04:03:49;;;;;;;9.73;2.67;;;;;;;;;;5054399;28;20039;-70
2023/04/20 04:06:16;;;;;;;8.73;2.83;;;;;;;;;;5049509;28;20049;-70
2023/04/20 04:08:42;;;;;;;9.23;3.10;;;;;;;;;;5037280;28;20055;-70
2023/04/20 04:11:08;;;;;;;9.75;2.55;;;;;;;;;;5051973;28;21422;-70
2023/04/20 04:13:34;;;;;;;6.40;2.40;;;;;;;;;;5053976;28;20032;-70
2023/04/20 04:16:00;;;;;;;13.45;2.30;;;;;;;;;;5036555;28;20044;-70
2023/04/20 04:18:31;;;;;;;5.18;2.10;;;;;;;;;;5052678;28;20043;-70
2023/04/20 04:20:57;;;;;;;9.90;3.58;;;;;;;;;;5051744;28;20125;-70
2023/04/20 04:23:23;;;;;;;10.00;2.78;;;;;;;;;;5032196;28;20110;-70
2023/04/20 04:25:50;;;;;;;9.82;2.78;;;;;;;;;;5052881;28;20675;-70
2023/04/20 04:28:16;;;;;;;16.00;2.45;;;;;;;;;;5028777;28;20040;-70
2023/04/20 04:30:42;;;;;;;8.10;2.80;;;;;;;;;;5052450;28;20048;-70
2023/04/20 04:33:09;;;;;;;7.28;2.30;;;;;;;;;;5052170;28;20048;-70
2023/04/20 04:35:35;;;;;;;7.35;2.35;;;;;;;;;;5053123;28;20040;-70
2023/04/20 04:38:01;;;;;;;10.02;2.45;;;;;;;;;;5034772;28;20483;-70
2023/04/20 04:40:27;;;;;;;10.30;2.40;;;;;;;;;;5028033;28;20044;-70
2023/04/20 04:42:54;;;;;;;11.75;2.78;;;;;;;;;;5053756;28;20503;-70
2023/04/20 04:45:20;;;;;;;11.73;3.13;;;;;;;;;;5051419;28;20087;-70
2023/04/20 04:47:46;;;;;;;10.23;2.38;;;;;;;;;;5035069;28;20037;-67
2023/04/20 04:50:12;;;;;;;5.55;2.22;;;;;;;;;;5034015;28;21399;-67
2023/04/20 04:52:39;;;;;;;7.38;2.17;;;;;;;;;;5051739;28;20097;-69
2023/04/20 04:55:08;;;;;;;7.97;2.10;;;;;;;;;;5059211;28;20064;-69
2023/04/20 04:57:34;;;;;;;7.97;2.45;;;;;;;;;;5051104;28;20048;-69
2023/04/20 05:00:00;;;;;;;6.82;1.92;;;;;;;;;;5053531;28;20125;-69
2023/04/20 05:02:26;;;;;;;6.97;2.38;;;;;;;;;;5037784;28;20126;-69
2023/04/20 05:04:52;;;;;;;10.15;2.38;;;;;;;;;;5031173;28;20068;-69
2023/04/20 05:07:18;;;;;;;8.95;2.40;;;;;;;;;;5034373;28;20456;-70
2023/04/20 05:09:44;;;;;;;11.43;2.20;;;;;;;;;;5037883;28;20049;-70
2023/04/20 05:12:11;;;;;;;15.77;2.88;;;;;;;;;;5053317;28;20109;-69
2023/04/20 05:14:37;;;;;;;13.82;3.00;;;;;;;;;;5039352;28;20047;-76
2023/04/20 05:17:04;;;;;;;13.00;2.47;;;;;;;;;;5020860;28;20116;-69
2023/04/20 05:19:30;;;;;;;8.48;2.20;;;;;;;;;;5056057;28;20053;-69
2023/04/20 05:21:56;;;;;;;11.48;2.20;;;;;;;;;;5056949;28;20051;-69
2023/04/20 05:24:22;;;;;;;10.55;2.63;;;;;;;;;;5053364;28;20136;-69
2023/04/20 05:26:48;;;;;;;11.15;3.05;;;;;;;;;;5054193;28;20048;-69
2023/04/20 05:29:15;;;;;;;8.18;2.53;;;;;;;;;;5035170;28;20048;-69
2023/04/20 05:31:41;;;;;;;14.35;2.25;;;;;;;;;;5055408;28;20476;-69
2023/04/20 05:34:08;;;;;;;9.32;2.15;;;;;;;;;;5038070;28;20048;-69
2023/04/20 05:36:34;;;;;;;7.80;2.10;;;;;;;;;;5064786;28;20444;-69
2023/04/20 05:39:00;;;;;;;6.30;1.95;;;;;;;;;;5064022;28;20168;-69
2023/04/20 05:41:26;;;;;;;7.50;2.17;;;;;;;;;;5043512;28;20045;-70
2023/04/20 05:43:53;;;;;;;6.82;2.10;;;;;;;;;;5056751;28;20045;-69
2023/04/20 05:46:19;;;;;;;7.63;2.17;;;;;;;;;;5061352;28;20060;-69
2023/04/20 05:48:46;;;;;;;13.05;1.90;;;;;;;;;;5044182;28;20051;-69
2023/04/20 05:51:12;;;;;;;5.50;1.80;;;;;;;;;;5038053;28;20527;-69
2023/04/20 05:53:38;;;;;;;10.57;2.03;;;;;;;;;;5057444;28;20481;-69
2023/04/20 05:56:05;;;;;;;8.43;2.70;;;;;;;;;;5060054;28;20044;-69
2023/04/20 05:58:32;;;;;;;7.63;2.42;;;;;;;;;;5060267;28;20049;-69
2023/04/20 06:00:58;;;;;;;5.88;1.90;;;;;;;;;;5044127;28;20040;-69
2023/04/20 06:03:24;;;;;;;9.80;2.10;;;;;;;;;;5061259;28;20090;-70
2023/04/20 06:05:51;;;;;;;6.55;1.92;;;;;;;;;;5059341;28;20048;-69
2023/04/20 06:08:18;;;;;;;6.72;2.03;;;;;;;;;;5059431;28;20109;-70
2023/04/20 06:10:44;;;;;;;9.80;2.40;;;;;;;;;;5058268;28;20044;-69
2023/04/20 06:13:10;;;;;;;12.07;2.60;;;;;;;;;;5062552;28;20048;-70
2023/04/20 06:15:36;;;;;;;13.00;2.13;;;;;;;;;;5041648;28;20049;-69
2023/04/20 06:18:03;;;;;;;8.75;2.42;;;;;;;;;;5064711;28;20042;-69
2023/04/20 06:20:29;;;;;;;9.05;2.03;;;;;;;;;;5043349;28;20060;-69
2023/04/20 06:22:55;;;;;;;8.57;2.05;;;;;;;;;;5062805;28;20381;-69
2023/04/20 06:25:21;;;;;;;11.60;2.80;;;;;;;;;;5059868;28;20156;-69
2023/04/20 06:27:48;;;;;;;9.43;2.47;;;;;;;;;;5043343;28;20038;-69
2023/04/20 06:30:15;;;;;;;7.22;1.95;;;;;;;;;;5058835;28;20092;-69
2023/04/20 06:32:41;;;;;;;7.32;1.90;;;;;;;;;;5060478;28;20111;-70
2023/04/20 06:35:07;;;;;;;5.60;1.83;;;;;;;;;;5061413;28;20069;-69
2023/04/20 06:37:35;;;;;;;8.20;2.30;;;;;;;;;;5059267;28;20049;-69
2023/04/20 06:40:02;;;;;;;7.03;2.08;;;;;;;;;;5043708;28;20510;-69
2023/04/20 06:42:28;;;;;;;11.20;2.20;;;;;;;;;;5061838;28;20048;-69
2023/04/20 06:44:55;;;;;;;6.78;2.40;;;;;;;;;;5047356;28;20059;-69
2023/04/20 06:47:21;;;;;;;5.50;1.92;;;;;;;;;;5047154;28;21584;-69
2023/04/20 06:49:47;;;;;;;8.40;2.33;;;;;;;;;;5064747;28;20040;-69
2023/04/20 06:52:13;;;;;;;5.90;2.25;;;;;;;;;;5040250;28;20078;-69
2023/04/20 06:54:39;;;;;;;6.70;2.40;;;;;;;;;;5062343;28;20036;-69
2023/04/20 06:57:06;;;;;;;6.88;1.95;;;;;;;;;;5061102;28;20052;-67
2023/04/20 06:59:32;;;;;;;12.95;3.08;;;;;;;;;;5045666;28;20074;-67
2023/04/20 07:01:58;;;;;;;9.30;2.30;;;;;;;;;;5063010;28;20127;-69
2023/04/20 07:04:24;;;;;;;6.97;2.17;;;;;;;;;;5059608;28;20044;-69
2023/04/20 07:06:51;;;;;;;5.53;2.15;;;;;;;;;;5048685;28;20591;-70
2023/04/20 07:09:18;;;;;;;6.70;2.42;;;;;;;;;;5063141;28;20048;-69
2023/04/20 07:11:44;;;;;;;6.10;2.13;;;;;;;;;;5047180;28;20052;-70
2023/04/20 07:14:10;;;;;;;9.60;2.90;;;;;;;;;;5044606;28;20085;-69
2023/04/20 07:16:36;;;;;;;10.30;2.55;;;;;;;;;;5061833;28;20118;-69
2023/04/20 07:19:02;;;;;;;7.75;2.40;;;;;;;;;;5061322;28;20056;-70
2023/04/20 07:21:30;;;;;;;7.35;2.47;;;;;;;;;;5063658;28;20048;-70
2023/04/20 07:23:57;;;;;;;6.97;2.45;;;;;;;;;;5063625;28;20072;-70
2023/04/20 07:26:24;;;;;;;8.88;3.00;;;;;;;;;;5045679;28;20052;-70
2023/04/20 07:28:51;;;;;;;12.35;3.17;;;;;;;;;;5059534;28;20167;-70
2023/04/20 07:31:17;;;;;;;9.93;3.33;;;;;;;;;;5058747;28;20047;-70
2023/04/20 07:33:44;;;;;;;8.30;2.72;;;;;;;;;;5058504;28;20037;-70
2023/04/20 07:36:10;;;;;;;8.85;2.85;;;;;;;;;;5058517;28;20072;-70
2023/04/20 07:38:36;;;;;;;9.20;2.92;;;;;;;;;;5046429;28;20041;-70
2023/04/20 07:41:03;;;;;;;9.43;3.40;;;;;;;;;;5062412;28;20507;-70
2023/04/20 07:43:29;;;;;;;6.95;2.70;;;;;;;;;;5041129;28;20556;-70
2023/04/20 07:46:20;;;;;;;9.75;2.80;;;;;;;;;;5061041;28;20082;-70
2023/04/20 07:48:46;;;;;;;10.70;3.50;;;;;;;;;;5061849;28;20102;-70
2023/04/20 07:51:13;;;;;;;10.98;4.07;;;;;;;;;;5060799;28;20044;-70
2023/04/20 07:53:39;;;;;;;6.75;3.20;;;;;;;;;;5058075;28;20061;-70
2023/04/20 07:56:05;;;;;;;8.05;3.80;;;;;;;;;;5055276;28;20428;-70
2023/04/20 07:58:32;;;;;;;9.73;3.17;;;;;;;;;;5042706;28;20063;-70
2023/04/20 08:00:58;;;;;;;8.70;3.00;;;;;;;;;;5043599;28;20068;-70
2023/04/20 08:03:26;;;;;;;8.77;3.10;;;;;;;;;;5061729;28;20044;-70
2023/04/20 08:05:52;;;;;;;7.97;3.13;;;;;;;;;;5061801;28;20045;-70
2023/04/20 08:08:18;;;;;;;8.00;3.38;;;;;;;;;;5063679;28;20040;-70
2023/04/20 08:10:44;;;;;;;6.45;2.80;;;;;;;;;;5061445;28;20045;-70
2023/04/20 08:13:10;;;;;;;9.93;3.47;;;;;;;;;;5044247;28;20071;-70
2023/04/20 08:15:36;;;;;;;8.38;3.53;;;;;;;;;;5062713;28;20072;-70
2023/04/20 08:18:02;;;;;;;9.38;3.60;;;;;;;;;;5045539;28;20063;-70
2023/04/20 08:20:29;;;;;;;8.00;3.05;;;;;;;;;;5060493;28;20455;-66
2023/04/20 08:22:55;;;;;;;9.02;3.90;;;;;;;;;;5060242;28;20048;-70
2023/04/20 08:25:21;;;;;;;8.80;3.67;;;;;;;;;;5043103;28;20041;-70
2023/04/20 08:27:47;;;;;;;8.25;3.65;;;;;;;;;;5056601;28;20443;-70
2023/04/20 08:30:14;;;;;;;8.93;3.67;;;;;;;;;;5043151;28;20040;-70
2023/04/20 08:32:40;;;;;;;8.68;3.97;;;;;;;;;;5057523;28;20106;-70
2023/04/20 08:35:07;;;;;;;12.32;4.13;;;;;;;;;;5059833;28;20102;-70
2023/04/20 08:37:33;;;;;;;9.60;3.55;;;;;;;;;;5043923;28;20052;-70
2023/04/20 08:39:59;;;;;;;9.20;3.30;;;;;;;;;;5040175;28;20466;-70
2023/04/20 08:42:25;;;;;;;10.05;3.70;;;;;;;;;;5060888;28;20115;-70
2023/04/20 08:44:52;;;;;;;10.40;3.45;;;;;;;;;;5060477;28;20037;-70
2023/04/20 08:47:19;;;;;;;12.60;4.22;;;;;;;;;;5039161;28;20052;-70
2023/04/20 08:49:46;;;;;;;11.80;3.63;;;;;;;;;;5063019;28;20044;-72
2023/04/20 08:52:12;;;;;;;8.40;3.50;;;;;;;;;;5044235;28;20121;-67
2023/04/20 08:54:38;;;;;;;7.60;3.17;;;;;;;;;;5060555;28;20388;-68
2023/04/20 08:57:04;;;;;;;10.57;3.72;;;;;;;;;;5057271;28;20418;-70
2023/04/20 08:59:31;;;;;;;11.45;3.80;;;;;;;;;;5059849;28;20040;-66
2023/04/20 09:02:08;;;;;;;9.18;3.45;;;;;;;;;;5060968;28;20499;-70
2023/04/20 09:04:34;;;;;;;7.90;3.33;;;;;;;;;;5040370;28;20507;-69
2023/04/20 09:07:01;;;;;;;9.68;3.67;;;;;;;;;;5044111;28;20106;-70
2023/04/20 09:09:27;;;;;;;12.65;3.83;;;;;;;;;;5063651;28;20125;-70
2023/04/20 09:12:01;;;;;;;10.10;3.63;;;;;;;;;;5046534;28;20119;-70
2023/04/20 09:14:28;;;;;;;9.57;3.80;;;;;;;;;;5049971;28;20056;-70
2023/04/20 09:16:59;;;;;;;10.82;3.80;;;;;;;;;;5032783;28;20041;-70
2023/04/20 09:19:26;;;;;;;11.38;4.10;;;;;;;;;;5066434;28;20416;-70
2023/04/20 09:21:53;;;;;;;7.50;4.03;;;;;;;;;;5047739;28;20055;-70
2023/04/20 09:24:20;;;;;;;13.68;4.53;;;;;;;;;;5051724;28;20512;-70
2023/04/20 09:26:47;;;;;;;8.60;4.47;;;;;;;;;;5050778;28;20075;-70
2023/04/20 09:29:32;;;;;;;9.73;3.90;;;;;;;;;;5049193;28;20076;-70
2023/04/20 09:31:58;;;;;;;12.57;4.40;;;;;;;;;;5067564;28;20515;-69
2023/04/20 09:34:24;;;;;;;8.90;4.00;;;;;;;;;;5058452;28;20396;-69
2023/04/20 09:36:53;;;;;;;12.75;4.72;;;;;;;;;;5035873;28;20055;-70
2023/04/20 09:39:20;;;;;;;7.20;4.13;;;;;;;;;;5058163;28;20080;-70
2023/04/20 09:41:46;;;;;;;10.30;3.72;;;;;;;;;;5039679;28;20047;-70
2023/04/20 09:44:13;;;;;;;11.90;4.85;;;;;;;;;;5061246;28;20443;-69
2023/04/20 09:46:40;;;;;;;8.68;3.67;;;;;;;;;;5024394;28;20067;-74
2023/04/20 09:49:07;;;;;;;8.40;3.75;;;;;;;;;;5062709;28;20055;-69
2023/04/20 09:51:35;;;;;;;7.97;3.75;;;;;;;;;;5062990;28;20388;-67
2023/04/20 09:54:03;;;;;;;8.75;3.75;;;;;;;;;;5059713;28;20043;-69
2023/04/20 09:56:29;;;;;;;11.55;4.60;;;;;;;;;;5057770;28;20106;-69
2023/04/20 09:58:56;;;;;;;11.63;4.32;;;;;;;;;;5060322;28;20067;-69
2023/04/20 10:01:22;;;;;;;12.25;4.53;;;;;;;;;;5062862;28;20037;-70
2023/04/20 10:03:49;;;;;;;9.13;4.18;;;;;;;;;;5057120;28;20056;-70
2023/04/20 10:06:18;;;;;;;10.38;4.35;;;;;;;;;;5063203;28;20093;-70
2023/04/20 10:08:44;;;;;;;8.77;4.45;;;;;;;;;;5064473;28;20040;-70
2023/04/20 10:11:11;;;;;;;11.65;4.35;;;;;;;;;;5050408;28;20044;-70
2023/04/20 10:13:37;;;;;;;8.68;3.88;;;;;;;;;;5049143;28;20040;-70
2023/04/20 10:16:03;;;;;;;8.57;4.05;;;;;;;;;;5049008;28;20044;-70
2023/04/20 10:18:29;;;;;;;13.27;4.45;;;;;;;;;;5065034;28;20039;-70
2023/04/20 10:21:14;;;;;;;8.07;3.97;;;;;;;;;;5053756;28;20044;-70
2023/04/20 10:23:50;;;;;;;9.27;5.35;;;;;;;;;;5046778;28;20040;-70
2023/04/20 10:26:17;;;;;;;11.02;4.15;;;;;;;;;;5065318;28;20373;-70
2023/04/20 10:28:43;;;;;;;8.40;3.70;;;;;;;;;;5044575;28;20110;-70
2023/04/20 10:31:12;;;;;;;9.05;4.03;;;;;;;;;;5040577;28;20129;-71
2023/04/20 10:33:49;;;;;;;9.10;4.53;;;;;;;;;;5060791;28;20045;-70
2023/04/20 10:36:24;;;;;;;14.52;5.10;;;;;;;;;;5065422;28;20380;-70
2023/04/20 10:38:51;;;;;;;10.15;4.90;;;;;;;;;;5063405;28;20411;-70
2023/04/20 10:41:17;;;;;;;10.40;4.28;;;;;;;;;;5067982;28;20052;-70
2023/04/20 10:43:44;;;;;;;7.97;3.83;;;;;;;;;;5050425;28;20051;-70
2023/04/20 10:46:17;;;;;;;8.60;3.83;;;;;;;;;;5042683;28;20674;-70
2023/04/20 10:48:52;;;;;;;10.57;5.00;;;;;;;;;;5065867;28;20137;-70
2023/04/20 10:51:19;;;;;;;11.90;4.35;;;;;;;;;;5047564;28;20119;-70
2023/04/20 10:53:45;;;;;;;7.95;4.82;;;;;;;;;;5050766;28;20050;-70
2023/04/20 10:56:11;;;;;;;10.13;4.55;;;;;;;;;;5066912;28;20385;-69
2023/04/20 10:58:38;;;;;;;8.95;4.35;;;;;;;;;;5068160;28;20156;-70
2023/04/20 11:01:04;;;;;;;10.32;4.13;;;;;;;;;;5064319;28;20051;-70
2023/04/20 11:03:32;;;;;;;10.15;4.13;;;;;;;;;;5068326;28;20415;-70
2023/04/20 11:06:01;;;;;;;11.68;4.30;;;;;;;;;;5046280;28;20377;-70
2023/04/20 11:08:37;;;;;;;10.77;4.65;;;;;;;;;;5050021;28;20050;-70
2023/04/20 11:11:04;;;;;;;9.15;4.57;;;;;;;;;;5062942;28;20102;-70
2023/04/20 11:13:31;;;;;;;7.05;4.20;;;;;;;;;;5061828;28;20053;-69
2023/04/20 11:15:58;;;;;;;12.60;4.68;;;;;;;;;;5041705;28;20060;-69
2023/04/20 11:18:24;;;;;;;11.63;4.57;;;;;;;;;;5060445;28;20055;-69
2023/04/20 11:20:51;;;;;;;9.38;5.07;;;;;;;;;;5058930;28;20059;-70
2023/04/20 11:23:19;;;;;;;11.27;4.90;;;;;;;;;;5059068;28;20045;-70
2023/04/20 11:25:52;;;;;;;9.38;4.90;;;;;;;;;;5059586;28;20052;-70
2023/04/20 11:28:18;;;;;;;12.90;5.47;;;;;;;;;;5059854;28;20036;-70
2023/04/20 11:30:45;;;;;;;11.70;4.20;;;;;;;;;;5060294;28;20432;-69
2023/04/20 11:33:12;;;;;;;10.93;5.65;;;;;;;;;;5066228;28;20123;-69
2023/04/20 11:35:40;;;;;;;9.05;4.72;;;;;;;;;;5067555;28;20052;-70
2023/04/20 11:38:06;;;;;;;7.70;4.55;;;;;;;;;;5061588;28;20056;-69
2023/04/20 11:40:33;;;;;;;10.90;4.88;;;;;;;;;;5061842;28;20111;-70
2023/04/20 11:42:59;;;;;;;12.52;5.25;;;;;;;;;;5070448;28;20059;-70
2023/04/20 11:45:26;;;;;;;11.80;6.18;;;;;;;;;;5064865;28;20111;-70
2023/04/20 11:47:54;;;;;;;11.40;4.97;;;;;;;;;;5048702;28;20136;-70
2023/04/20 11:50:20;;;;;;;12.18;6.03;;;;;;;;;;5041628;28;20049;-69
2023/04/20 11:52:47;;;;;;;14.35;5.00;;;;;;;;;;5057418;28;20052;-69
2023/04/20 11:55:13;;;;;;;14.45;5.28;;;;;;;;;;5060583;28;20041;-70
2023/04/20 11:57:39;;;;;;;12.45;5.28;;;;;;;;;;5058541;28;20395;-70
2023/04/20 12:00:06;;;;;;;13.20;5.22;;;;;;;;;;5043889;28;20056;-70
2023/04/20 12:02:32;;;;;;;8.43;4.82;;;;;;;;;;5042547;28;20055;-70
2023/04/20 12:05:00;;;;;;;15.80;5.70;;;;;;;;;;5062639;28;20044;-70
2023/04/20 12:07:27;;;;;;;10.00;4.82;;;;;;;;;;5057297;28;20086;-70
2023/04/20 12:09:53;;;;;;;9.80;5.22;;;;;;;;;;5059844;28;20483;-70
2023/04/20 12:12:19;;;;;;;8.32;4.57;;;;;;;;;;5062785;28;20122;-70
2023/04/20 12:14:45;;;;;;;10.25;4.97;;;;;;;;;;5057788;28;20072;-71
2023/04/20 12:17:11;;;;;;;9.85;4.68;;;;;;;;;;5043064;28;20119;-70
2023/04/20 12:19:38;;;;;;;10.10;5.70;;;;;;;;;;5063375;28;20052;-71
2023/04/20 12:22:04;;;;;;;9.20;4.70;;;;;;;;;;5057379;28;20052;-70
2023/04/20 12:24:30;;;;;;;7.93;5.20;;;;;;;;;;5059704;28;20060;-70
2023/04/20 12:26:56;;;;;;;11.32;5.47;;;;;;;;;;5062500;28;20150;-70
2023/04/20 12:29:23;;;;;;;11.07;5.95;;;;;;;;;;5060873;28;20051;-70
2023/04/20 12:31:49;;;;;;;10.80;5.25;;;;;;;;;;5059628;28;20036;-70
2023/04/20 12:34:15;;;;;;;9.15;5.05;;;;;;;;;;5056382;28;20642;-70
2023/04/20 12:36:41;;;;;;;8.27;4.80;;;;;;;;;;5054026;28;20484;-69
2023/04/20 12:39:07;;;;;;;10.25;5.15;;;;;;;;;;5052729;28;20063;-70
2023/04/20 12:41:34;;;;;;;8.48;5.05;;;;;;;;;;5038239;28;20045;-71
2023/04/20 12:44:01;;;;;;;9.85;5.07;;;;;;;;;;5039908;28;20950;-71
2023/04/20 12:46:27;;;;;;;12.20;6.05;;;;;;;;;;5057505;28;20048;-71
2023/04/20 12:48:53;;;;;;;10.52;5.07;;;;;;;;;;5067171;28;20083;-71
2023/04/20 12:51:19;;;;;;;10.73;5.18;;;;;;;;;;5062960;28;20135;-71
2023/04/20 12:53:45;;;;;;;9.60;5.35;;;;;;;;;;5056921;28;20037;-71
2023/04/20 12:56:11;;;;;;;8.20;5.13;;;;;;;;;;5048963;28;20048;-71
2023/04/20 12:58:37;;;;;;;8.55;5.55;;;;;;;;;;5060658;28;20091;-71
2023/04/20 13:01:04;;;;;;;9.48;6.15;;;;;;;;;;5059844;28;20071;-71
2023/04/20 13:03:30;;;;;;;8.45;5.80;;;;;;;;;;5042215;28;20044;-71
2023/04/20 13:05:56;;;;;;;10.27;6.82;;;;;;;;;;5041942;28;20158;-71
2023/04/20 13:08:22;;;;;;;9.75;6.05;;;;;;;;;;5056823;28;20709;-71
2023/04/20 13:10:48;;;;;;;10.15;6.32;;;;;;;;;;5056917;28;20051;-71
2023/04/20 13:13:14;;;;;;;8.73;6.28;;;;;;;;;;5061510;28;20044;-71
2023/04/20 13:15:40;;;;;;;10.93;6.75;;;;;;;;;;5056057;28;20105;-71
2023/04/20 13:18:08;;;;;;;10.68;6.78;;;;;;;;;;5039059;28;20086;-71
2023/04/20 13:20:34;;;;;;;12.52;7.05;;;;;;;;;;5061143;28;20040;-71
2023/04/20 13:23:01;;;;;;;10.68;6.90;;;;;;;;;;5058631;28;20480;-71
2023/04/20 13:25:31;;;;;;;11.60;6.57;;;;;;;;;;5043880;28;20434;-70
2023/04/20 13:27:57;;;;;;;13.60;6.78;;;;;;;;;;5058819;28;20059;-70
2023/04/20 13:30:23;;;;;;;9.75;6.50;;;;;;;;;;5056981;28;20053;-71
2023/04/20 13:32:50;;;;;;;11.43;6.55;;;;;;;;;;5042369;28;20048;-70
2023/04/20 13:35:16;;;;;;;9.35;5.57;;;;;;;;;;5046450;28;20048;-71
2023/04/20 13:37:43;;;;;;;11.02;5.93;;;;;;;;;;5061179;28;20036;-71
2023/04/20 13:40:09;;;;;;;13.10;6.75;;;;;;;;;;5063109;28;20040;-71
2023/04/20 13:42:36;;;;;;;10.60;5.57;;;;;;;;;;5062816;28;20044;-71
2023/04/20 13:45:02;;;;;;;11.50;5.88;;;;;;;;;;5059557;28;20044;-71
2023/04/20 13:47:29;;;;;;;10.93;5.43;;;;;;;;;;5058744;28;20366;-71
2023/04/20 13:49:55;;;;;;;7.93;5.63;;;;;;;;;;5061749;28;20040;-71
2023/04/20 13:52:21;;;;;;;8.30;5.13;;;;;;;;;;5064363;28;20418;-71
2023/04/20 13:54:48;;;;;;;8.23;5.55;;;;;;;;;;5056975;28;20449;-71
2023/04/20 13:57:14;;;;;;;7.07;5.00;;;;;;;;;;5062569;28;20091;-67
2023/04/20 13:59:40;;;;;;;10.52;5.22;;;;;;;;;;5064545;28;20094;-70
2023/04/20 14:02:06;;;;;;;9.10;5.47;;;;;;;;;;5067051;28;20048;-70
2023/04/20 14:04:32;;;;;;;9.88;6.45;;;;;;;;;;5062373;28;20040;-70
2023/04/20 14:06:58;;;;;;;10.15;5.90;;;;;;;;;;5061668;28;20121;-70
2023/04/20 14:09:24;;;;;;;7.57;5.22;;;;;;;;;;5067872;28;20102;-71
2023/04/20 14:11:51;;;;;;;8.55;5.28;;;;;;;;;;5063467;28;20040;-69
2023/04/20 14:14:17;;;;;;;9.02;6.05;;;;;;;;;;5057594;28;20099;-70
2023/04/20 14:16:45;;;;;;;8.52;5.60;;;;;;;;;;5060908;28;20095;-71
2023/04/20 14:19:12;;;;;;;7.18;5.15;;;;;;;;;;5062823;28;20133;-71
2023/04/20 14:21:39;;;;;;;10.05;5.57;;;;;;;;;;5043487;28;20514;-71
2023/04/20 14:24:06;;;;;;;9.05;5.50;;;;;;;;;;5062494;28;20464;-70
2023/04/20 14:26:33;;;;;;;9.77;5.35;;;;;;;;;;5045427;28;20048;-69
2023/04/20 14:28:59;;;;;;;7.85;5.65;;;;;;;;;;5064672;28;20036;-70
2023/04/20 14:31:25;;;;;;;9.40;5.68;;;;;;;;;;5041308;28;20057;-70
2023/04/20 14:33:51;;;;;;;8.05;5.47;;;;;;;;;;5042467;28;20107;-70
2023/04/20 14:36:17;;;;;;;8.88;5.70;;;;;;;;;;5042664;28;20054;-70